Time;durP1;ratioP1;P1;durP2;ratioP2;P2;SDS_P1;SDS_P2;PMS_P1;PMS_P2;Temp;Humidity;BMP_temperature;BMP_pressure;BME280_temperature;BME280_humidity;BME280_pressure;Samples;Min_cycle;Max_cycle;Signal;HPM_P1;HPM_P2
2021/12/19 00:00:47;;;;;;;12.30;7.32;;;7.50;99.90;;;;;;5107370;28;20052;-65
2021/12/19 00:10:55;;;;;;;7.65;4.00;;;7.40;99.90;;;;;;5108300;28;20043;-64
2021/12/19 00:13:26;;;;;;;6.57;3.67;;;7.50;99.90;;;;;;5106905;28;20050;-65
2021/12/19 00:15:53;;;;;;;7.47;4.35;;;7.60;99.90;;;;;;5125501;28;20055;-64
2021/12/19 00:18:19;;;;;;;8.38;5.13;;;7.50;99.90;;;;;;5107162;28;20118;-65
2021/12/19 00:20:45;;;;;;;9.55;5.82;;;7.60;99.90;;;;;;5107210;28;20090;-64
2021/12/19 00:23:11;;;;;;;11.30;6.18;;;7.50;99.90;;;;;;5107854;28;20039;-64
2021/12/19 00:25:37;;;;;;;10.75;6.22;;;7.60;99.90;;;;;;5120689;28;20050;-64
2021/12/19 00:28:04;;;;;;;13.73;7.15;;;7.50;99.90;;;;;;5107473;28;20053;-64
2021/12/19 00:30:29;;;;;;;11.45;6.57;;;7.40;99.90;;;;;;5107934;28;20043;-65
2021/12/19 00:32:55;;;;;;;10.13;6.28;;;7.50;99.90;;;;;;5108045;28;20070;-65
2021/12/19 00:35:22;;;;;;;9.35;6.05;;;7.40;99.90;;;;;;5107721;28;20089;-65
2021/12/19 00:37:48;;;;;;;13.20;5.95;;;7.50;99.90;;;;;;5107946;28;20044;-64
2021/12/19 00:40:15;;;;;;;11.50;6.18;;;7.70;99.90;;;;;;5107573;28;20047;-64
2021/12/19 00:42:42;;;;;;;12.93;6.57;;;7.60;99.90;;;;;;5106023;28;20047;-65
2021/12/19 00:45:24;;;;;;;12.02;6.43;;;7.50;99.90;;;;;;5107043;28;20071;-65
2021/12/19 00:47:50;;;;;;;14.98;6.40;;;7.60;99.90;;;;;;5106157;28;20055;-65
2021/12/19 00:50:16;;;;;;;10.85;6.15;;;7.50;99.90;;;;;;5107467;27;20052;-64
2021/12/19 00:52:46;;;;;;;10.93;6.95;;;7.50;99.90;;;;;;5108190;28;20130;-65
2021/12/19 00:55:13;;;;;;;10.95;6.55;;;7.50;99.90;;;;;;5108974;28;20079;-65
2021/12/19 00:57:39;;;;;;;11.85;7.43;;;7.50;99.90;;;;;;5092588;28;20048;-65
2021/12/19 01:00:08;;;;;;;15.80;7.13;;;7.50;99.90;;;;;;5106683;28;20069;-65
2021/12/19 01:02:34;;;;;;;13.52;7.00;;;7.50;99.90;;;;;;5102692;28;20055;-65
2021/12/19 01:05:00;;;;;;;11.65;7.32;;;7.50;99.90;;;;;;5112544;28;20054;-65
2021/12/19 01:07:25;;;;;;;11.25;6.10;;;7.50;99.90;;;;;;5125927;28;20036;-64
2021/12/19 01:09:52;;;;;;;12.15;7.00;;;7.60;99.90;;;;;;5125465;27;20050;-65
2021/12/19 01:12:17;;;;;;;13.23;7.30;;;7.60;99.90;;;;;;5109175;28;20043;-65
2021/12/19 01:14:43;;;;;;;9.77;6.20;;;7.60;99.90;;;;;;5106534;28;20523;-65
2021/12/19 01:17:09;;;;;;;10.90;5.72;;;7.60;99.90;;;;;;5107784;28;20043;-64
2021/12/19 01:19:35;;;;;;;9.07;4.40;;;7.60;99.90;;;;;;5131653;27;20035;-65
2021/12/19 01:22:03;;;;;;;12.07;4.63;;;7.60;99.90;;;;;;5107781;28;20411;-64
2021/12/19 01:24:28;;;;;;;8.27;4.65;;;7.70;99.90;;;;;;5106845;28;20048;-64
2021/12/19 01:26:54;;;;;;;7.90;3.97;;;7.60;99.90;;;;;;5106790;28;20067;-64
2021/12/19 01:29:20;;;;;;;5.15;3.38;;;7.60;99.90;;;;;;5107368;28;20039;-65
2021/12/19 01:31:46;;;;;;;7.85;3.40;;;7.70;99.90;;;;;;5128064;28;20075;-65
2021/12/19 01:34:12;;;;;;;6.05;2.75;;;7.80;99.90;;;;;;5109373;28;20055;-65
2021/12/19 01:36:42;;;;;;;7.00;3.13;;;7.80;99.90;;;;;;5109715;28;20054;-64
2021/12/19 01:39:10;;;;;;;5.65;2.90;;;7.80;99.90;;;;;;5108129;28;20095;-64
2021/12/19 01:41:42;;;;;;;6.03;3.97;;;7.70;99.90;;;;;;5127932;28;20426;-65
2021/12/19 01:44:09;;;;;;;11.25;4.25;;;7.60;99.90;;;;;;5107482;28;20047;-65
2021/12/19 01:46:35;;;;;;;10.02;4.25;;;7.50;99.90;;;;;;5105746;28;20047;-65
2021/12/19 01:49:01;;;;;;;10.00;5.63;;;7.60;99.90;;;;;;5128785;28;20043;-64
2021/12/19 01:51:27;;;;;;;10.85;5.60;;;7.60;99.90;;;;;;5125603;28;20058;-65
2021/12/19 01:53:53;;;;;;;12.82;5.30;;;7.60;99.90;;;;;;5127085;28;20040;-64
2021/12/19 01:56:19;;;;;;;9.05;4.80;;;7.70;99.90;;;;;;5106414;28;20086;-65
2021/12/19 01:58:46;;;;;;;5.00;3.85;;;7.60;99.90;;;;;;5106294;28;20040;-65
2021/12/19 02:01:13;;;;;;;5.43;2.80;;;7.60;99.90;;;;;;5123856;28;20044;-65
2021/12/19 02:03:40;;;;;;;6.13;2.80;;;7.60;99.90;;;;;;5109796;28;20121;-65
2021/12/19 02:06:05;;;;;;;4.15;2.30;;;7.70;99.90;;;;;;5094963;28;20048;-65
2021/12/19 02:08:31;;;;;;;5.60;2.53;;;7.60;99.90;;;;;;5111775;28;20058;-65
2021/12/19 02:10:57;;;;;;;4.72;2.40;;;7.60;99.90;;;;;;5109567;28;20043;-64
2021/12/19 02:13:23;;;;;;;6.70;2.40;;;7.60;99.90;;;;;;5126187;28;20050;-65
2021/12/19 02:15:50;;;;;;;5.60;2.20;;;7.40;99.90;;;;;;5106212;28;20112;-65
2021/12/19 02:18:19;;;;;;;4.97;2.25;;;7.50;99.90;;;;;;5110728;28;20158;-64
2021/12/19 02:20:52;;;;;;;3.10;1.65;;;7.40;99.90;;;;;;5109086;28;20050;-64
2021/12/19 02:23:20;;;;;;;3.67;1.85;;;7.40;99.90;;;;;;5109908;28;20051;-65
2021/12/19 02:25:47;;;;;;;3.75;2.20;;;7.20;99.90;;;;;;5107379;28;20051;-65
2021/12/19 02:28:12;;;;;;;3.15;1.50;;;7.40;99.90;;;;;;5106184;28;20043;-65
2021/12/19 02:30:38;;;;;;;3.55;1.80;;;7.30;99.90;;;;;;5108627;28;20059;-65
2021/12/19 02:33:12;;;;;;;2.72;1.48;;;7.20;99.90;;;;;;5111350;28;20043;-64
2021/12/19 02:35:40;;;;;;;3.35;1.40;;;7.20;99.90;;;;;;5108775;28;20056;-65
2021/12/19 02:48:32;;;;;;;3.25;1.38;;;7.30;99.90;;;;;;5130627;27;20052;-65
2021/12/19 02:50:58;;;;;;;3.15;1.30;;;7.40;99.90;;;;;;5129122;27;20043;-64
2021/12/19 02:53:37;;;;;;;1.90;1.25;;;7.30;99.90;;;;;;5128987;27;20074;-64
2021/12/19 02:56:05;;;;;;;1.80;1.35;;;7.30;99.90;;;;;;5114405;27;20072;-65
2021/12/19 02:58:32;;;;;;;2.45;1.30;;;7.30;99.90;;;;;;5110794;27;20519;-64
2021/12/19 03:01:00;;;;;;;2.83;1.50;;;7.30;99.90;;;;;;5129302;27;20036;-64
2021/12/19 03:03:26;;;;;;;2.10;1.20;;;7.30;99.90;;;;;;5112236;28;20051;-64
2021/12/19 03:05:51;;;;;;;4.13;1.30;;;7.40;99.90;;;;;;5110566;28;20107;-65
2021/12/19 03:08:18;;;;;;;4.85;1.60;;;7.40;99.90;;;;;;5111236;28;20043;-65
2021/12/19 03:18:31;;;;;;;2.83;1.80;;;7.30;99.90;;;;;;5131272;27;20086;-64
2021/12/19 03:20:57;;;;;;;4.90;2.25;;;7.30;99.90;;;;;;5109614;28;20492;-64
2021/12/19 03:23:23;;;;;;;2.65;1.80;;;7.20;99.90;;;;;;5108023;28;20035;-65
2021/12/19 03:25:49;;;;;;;3.58;1.63;;;7.30;99.90;;;;;;5112099;28;20060;-65
2021/12/19 03:28:15;;;;;;;3.25;1.40;;;7.30;99.90;;;;;;5133146;27;20048;-64
2021/12/19 03:30:45;;;;;;;1.77;1.23;;;7.20;99.90;;;;;;5128424;27;20048;-64
2021/12/19 03:33:12;;;;;;;2.47;1.23;;;7.20;99.90;;;;;;5105853;28;20054;-64
2021/12/19 03:35:40;;;;;;;1.60;0.90;;;7.20;99.90;;;;;;5132549;27;20059;-64
2021/12/19 03:38:08;;;;;;;1.40;0.80;;;7.20;99.90;;;;;;5131237;27;20055;-64
2021/12/19 03:40:39;;;;;;;2.00;0.95;;;7.30;99.90;;;;;;5111359;27;20046;-64
2021/12/19 03:43:08;;;;;;;2.80;1.23;;;7.40;99.90;;;;;;5127706;27;20062;-65
2021/12/19 03:45:34;;;;;;;1.70;1.10;;;7.40;99.90;;;;;;5111999;28;20048;-64
2021/12/19 03:48:03;;;;;;;2.33;1.30;;;7.30;99.90;;;;;;5128261;27;20119;-64
2021/12/19 03:50:31;;;;;;;3.22;1.50;;;7.20;99.90;;;;;;5108269;27;20044;-65
2021/12/19 03:52:56;;;;;;;1.10;1.00;;;7.30;99.90;;;;;;5125613;27;20069;-64
2021/12/19 03:55:24;;;;;;;1.20;0.90;;;7.20;99.90;;;;;;5109267;28;20051;-64
2021/12/19 03:57:50;;;;;;;1.25;0.70;;;7.20;99.90;;;;;;5112135;28;20047;-64
2021/12/19 04:00:23;;;;;;;0.52;0.50;;;7.20;99.90;;;;;;5108703;28;20071;-64
2021/12/19 04:02:52;;;;;;;0.90;0.63;;;7.40;99.90;;;;;;5108032;27;20283;-65
2021/12/19 04:05:18;;;;;;;0.65;0.60;;;7.40;99.90;;;;;;5097254;28;20048;-65
2021/12/19 04:07:44;;;;;;;1.15;0.70;;;7.30;99.90;;;;;;5109464;28;20121;-65
2021/12/19 04:10:09;;;;;;;1.05;0.55;;;7.30;99.90;;;;;;5112264;28;20043;-65
2021/12/19 04:12:35;;;;;;;2.35;0.75;;;7.20;99.90;;;;;;5112019;28;20051;-65
2021/12/19 04:15:01;;;;;;;0.50;0.50;;;7.20;99.90;;;;;;5133117;27;20662;-65
2021/12/19 04:17:26;;;;;;;1.10;0.60;;;7.20;99.90;;;;;;5111572;28;20042;-65
2021/12/19 04:19:52;;;;;;;1.45;0.90;;;7.30;99.90;;;;;;5094999;27;20044;-65
2021/12/19 04:22:18;;;;;;;3.35;0.80;;;7.20;99.90;;;;;;5110891;28;20039;-65
2021/12/19 04:24:43;;;;;;;1.55;0.63;;;7.20;99.90;;;;;;5111778;28;20122;-65
2021/12/19 04:27:09;;;;;;;0.95;0.77;;;7.20;99.90;;;;;;5111077;28;20062;-65
2021/12/19 04:29:35;;;;;;;1.45;0.70;;;7.10;99.90;;;;;;5113690;28;20042;-64
2021/12/19 04:32:01;;;;;;;2.80;0.73;;;7.00;99.90;;;;;;5102312;28;20061;-65
2021/12/19 04:34:26;;;;;;;1.20;0.70;;;7.10;99.90;;;;;;5107898;28;20059;-65
2021/12/19 04:36:59;;;;;;;0.85;0.60;;;7.10;99.90;;;;;;5129580;27;20043;-65
2021/12/19 04:58:18;;;;;;;5.00;1.63;;;7.10;99.90;;;;;;5123025;27;20057;-64
2021/12/19 05:00:40;;;;;;;3.40;1.75;;;7.10;99.90;;;;;;5117906;27;20054;-64
2021/12/19 05:03:18;;;;;;;3.50;1.70;;;7.10;99.90;;;;;;5137427;27;20035;-64
2021/12/19 05:06:00;;;;;;;5.72;2.28;;;7.10;99.90;;;;;;5121591;27;20078;-64
2021/12/19 05:16:28;;;;;;;7.60;3.17;;;7.20;99.90;;;;;;5110361;27;20138;-64
2021/12/19 05:19:02;;;;;;;8.27;3.53;;;7.20;99.90;;;;;;5107535;28;20077;-65
2021/12/19 05:21:29;;;;;;;8.57;3.80;;;7.10;99.90;;;;;;5125339;28;20066;-64
2021/12/19 05:26:24;;;;;;;9.23;4.53;;;7.20;99.90;;;;;;5124891;28;20075;-64
2021/12/19 05:28:52;;;;;;;11.65;4.97;;;7.50;99.90;;;;;;5111115;28;20039;-64
2021/12/19 05:31:19;;;;;;;18.67;5.22;;;7.40;99.90;;;;;;5109560;28;20122;-64
2021/12/19 05:33:46;;;;;;;15.20;5.35;;;7.30;99.90;;;;;;5110559;28;20164;-65
2021/12/19 05:46:42;;;;;;;16.42;5.63;;;7.20;99.90;;;;;;5111116;28;20048;-65
2021/12/19 05:49:09;;;;;;;13.13;4.50;;;7.20;99.90;;;;;;5125352;28;20107;-64
2021/12/19 05:51:36;;;;;;;11.77;4.80;;;7.20;99.90;;;;;;5122012;28;20039;-65
2021/12/19 05:54:02;;;;;;;16.67;5.22;;;7.30;99.90;;;;;;5108796;28;20063;-64
2021/12/19 05:56:28;;;;;;;15.27;5.10;;;7.20;99.90;;;;;;5130758;28;20036;-64
2021/12/19 05:58:55;;;;;;;16.08;5.72;;;7.20;99.90;;;;;;5106781;28;20046;-65
2021/12/19 06:01:20;;;;;;;16.80;6.50;;;7.30;99.90;;;;;;5108316;28;20040;-64
2021/12/19 06:03:46;;;;;;;17.38;5.53;;;7.30;99.90;;;;;;5125919;28;20069;-64
2021/12/19 06:06:12;;;;;;;20.45;6.40;;;7.20;99.90;;;;;;5101087;27;20110;-64
2021/12/19 06:08:38;;;;;;;16.73;6.20;;;7.30;99.90;;;;;;5111515;28;20507;-64
2021/12/19 06:11:03;;;;;;;13.27;5.47;;;7.30;99.90;;;;;;5133906;27;20035;-64
2021/12/19 06:13:29;;;;;;;18.38;5.95;;;7.30;99.90;;;;;;5109951;28;20085;-64
2021/12/19 06:15:57;;;;;;;20.08;5.85;;;7.40;99.90;;;;;;5130923;27;20071;-65
2021/12/19 06:18:23;;;;;;;14.70;6.22;;;7.30;99.90;;;;;;5113939;28;20040;-64
2021/12/19 06:20:49;;;;;;;14.55;6.53;;;7.30;99.90;;;;;;5109945;27;20082;-65
2021/12/19 06:23:15;;;;;;;16.27;5.85;;;7.30;99.90;;;;;;5112290;28;20092;-64
2021/12/19 06:25:46;;;;;;;17.00;6.35;;;7.20;99.90;;;;;;5112928;27;20043;-64
2021/12/19 06:28:17;;;;;;;18.63;7.53;;;7.40;99.90;;;;;;5131347;27;20081;-65
2021/12/19 06:30:43;;;;;;;17.80;6.78;;;7.30;99.90;;;;;;5110856;28;20047;-64
2021/12/19 06:33:09;;;;;;;18.48;6.30;;;7.40;99.90;;;;;;5126745;27;20410;-65
2021/12/19 06:35:35;;;;;;;18.13;6.63;;;7.30;99.90;;;;;;5132111;27;20075;-64
2021/12/19 06:38:01;;;;;;;15.95;6.05;;;7.40;99.90;;;;;;5129661;27;20527;-64
2021/12/19 06:40:27;;;;;;;19.02;7.03;;;7.40;99.90;;;;;;5111696;28;20058;-65
2021/12/19 06:42:53;;;;;;;16.08;6.18;;;7.50;99.90;;;;;;5127542;27;20044;-65
2021/12/19 06:45:20;;;;;;;20.25;6.82;;;7.50;99.90;;;;;;5109047;28;20488;-64
2021/12/19 06:47:46;;;;;;;19.10;6.32;;;7.40;99.90;;;;;;5111907;28;20046;-65
2021/12/19 06:50:15;;;;;;;16.25;5.80;;;7.40;99.90;;;;;;5132180;27;20043;-64
2021/12/19 06:52:41;;;;;;;15.23;4.90;;;7.40;99.90;;;;;;5113335;28;20054;-64
2021/12/19 06:55:09;;;;;;;13.65;5.88;;;7.50;99.90;;;;;;5095549;28;20039;-64
2021/12/19 06:57:35;;;;;;;12.88;5.35;;;7.50;99.90;;;;;;5129897;27;20047;-64
2021/12/19 07:00:00;;;;;;;15.32;5.47;;;7.50;99.90;;;;;;5109019;28;20116;-64
2021/12/19 07:02:26;;;;;;;14.02;5.57;;;7.50;99.90;;;;;;5093950;27;20063;-65
2021/12/19 07:04:52;;;;;;;15.52;5.47;;;7.50;99.90;;;;;;5107933;28;20044;-65
2021/12/19 07:07:20;;;;;;;19.65;6.68;;;7.50;99.90;;;;;;5086516;28;20057;-65
2021/12/19 07:09:45;;;;;;;15.25;5.72;;;7.40;99.90;;;;;;5127733;27;20059;-64
2021/12/19 07:12:11;;;;;;;16.80;5.43;;;7.40;99.90;;;;;;5113451;28;20107;-64
2021/12/19 07:14:37;;;;;;;18.85;6.53;;;7.30;99.90;;;;;;5111280;27;20044;-65
2021/12/19 07:17:03;;;;;;;14.88;5.68;;;7.40;99.90;;;;;;5110855;27;20079;-65
2021/12/19 07:19:28;;;;;;;21.60;6.60;;;7.40;99.90;;;;;;5111477;27;20043;-65
2021/12/19 07:21:54;;;;;;;17.35;5.70;;;7.50;99.90;;;;;;5108138;28;20040;-66
2021/12/19 07:24:20;;;;;;;28.17;7.13;;;7.40;99.90;;;;;;5109776;28;20043;-66
2021/12/19 07:26:46;;;;;;;17.13;6.03;;;7.50;99.90;;;;;;5133933;27;20040;-66
2021/12/19 07:29:11;;;;;;;17.40;4.97;;;7.60;99.90;;;;;;5129642;27;20058;-65
2021/12/19 07:31:38;;;;;;;10.55;4.63;;;7.80;99.90;;;;;;5111385;27;20054;-66
2021/12/19 07:34:07;;;;;;;11.18;3.78;;;7.70;99.90;;;;;;5126126;27;20051;-66
2021/12/19 07:36:43;;;;;;;11.65;4.20;;;7.70;99.90;;;;;;5111893;28;20062;-65
2021/12/19 07:39:27;;;;;;;14.70;4.10;;;7.70;99.90;;;;;;5109261;28;20335;-66
2021/12/19 07:41:53;;;;;;;15.18;4.68;;;7.50;99.90;;;;;;5107481;28;20051;-66
2021/12/19 07:44:19;;;;;;;19.58;4.15;;;7.60;99.90;;;;;;5129876;27;20097;-65
2021/12/19 07:46:45;;;;;;;10.73;3.75;;;7.40;99.90;;;;;;5111728;28;20047;-66
2021/12/19 07:49:12;;;;;;;15.90;4.00;;;7.50;99.90;;;;;;5108705;27;20050;-65
2021/12/19 07:51:38;;;;;;;17.65;4.32;;;7.30;99.90;;;;;;5110041;28;20194;-65
2021/12/19 07:54:04;;;;;;;14.82;3.83;;;7.30;99.90;;;;;;5110745;27;20043;-66
2021/12/19 07:56:29;;;;;;;16.63;4.97;;;7.30;99.90;;;;;;5107789;28;20075;-65
2021/12/19 07:58:55;;;;;;;14.30;3.72;;;7.20;99.90;;;;;;5127962;27;20116;-66
2021/12/19 08:01:21;;;;;;;17.15;4.30;;;7.20;99.90;;;;;;5110444;28;20031;-65
2021/12/19 08:03:46;;;;;;;13.23;4.30;;;7.20;99.90;;;;;;5127242;27;20050;-65
2021/12/19 08:06:12;;;;;;;10.02;3.58;;;7.20;99.90;;;;;;5131606;27;20084;-65
2021/12/19 08:08:38;;;;;;;16.20;4.38;;;7.20;99.90;;;;;;5092244;27;20051;-66
2021/12/19 08:13:48;;;;;;;13.98;3.90;;;7.20;99.90;;;;;;5110202;27;20082;-66
2021/12/19 08:16:14;;;;;;;15.32;4.72;;;7.20;99.90;;;;;;5109267;28;20044;-66
2021/12/19 08:18:40;;;;;;;19.10;4.03;;;7.20;99.90;;;;;;5131844;27;20069;-66
2021/12/19 08:21:05;;;;;;;18.30;4.45;;;7.20;99.90;;;;;;5116318;28;20051;-66
2021/12/19 08:23:32;;;;;;;11.55;3.92;;;7.10;99.90;;;;;;5091524;28;20054;-66
2021/12/19 08:25:58;;;;;;;16.60;4.03;;;7.10;99.90;;;;;;5127882;27;20035;-65
2021/12/19 08:28:24;;;;;;;17.90;4.00;;;7.10;99.90;;;;;;5106546;28;20035;-65
2021/12/19 08:30:50;;;;;;;16.83;4.30;;;7.10;99.90;;;;;;5110746;28;20073;-66
2021/12/19 08:33:16;;;;;;;19.75;3.85;;;7.20;99.90;;;;;;5091892;27;20153;-66
2021/12/19 08:35:42;;;;;;;18.17;3.75;;;7.20;99.90;;;;;;5104561;28;20099;-66
2021/12/19 08:38:07;;;;;;;21.92;4.10;;;7.20;99.90;;;;;;5105927;28;20100;-66
2021/12/19 08:40:33;;;;;;;15.68;3.90;;;7.20;99.90;;;;;;5104195;28;20076;-66
2021/12/19 08:42:59;;;;;;;12.60;3.40;;;7.20;99.90;;;;;;5106416;28;20063;-66
2021/12/19 08:45:25;;;;;;;18.00;4.28;;;7.20;99.90;;;;;;5107379;28;20121;-66
2021/12/19 08:47:51;;;;;;;15.15;4.10;;;7.20;99.90;;;;;;5104921;28;20035;-65
2021/12/19 08:50:18;;;;;;;15.77;4.18;;;7.20;99.90;;;;;;5109242;28;20044;-65
2021/12/19 08:52:44;;;;;;;11.05;3.47;;;7.30;99.90;;;;;;5106758;28;20096;-65
2021/12/19 08:55:11;;;;;;;12.40;3.88;;;7.20;99.90;;;;;;5108099;28;20051;-66
2021/12/19 08:57:38;;;;;;;16.30;4.10;;;7.20;99.90;;;;;;5092745;28;20043;-65
2021/12/19 09:00:13;;;;;;;13.63;3.70;;;7.20;99.90;;;;;;5110097;28;20040;-65
2021/12/19 09:02:44;;;;;;;13.52;3.90;;;7.40;99.90;;;;;;5104415;28;20044;-66
2021/12/19 09:05:10;;;;;;;13.95;3.90;;;7.30;99.90;;;;;;5100206;28;20047;-66
2021/12/19 09:07:36;;;;;;;14.02;3.50;;;7.30;99.90;;;;;;5105584;28;20120;-66
2021/12/19 09:10:04;;;;;;;22.30;4.88;;;7.30;99.90;;;;;;5108490;28;20036;-65
2021/12/19 09:12:30;;;;;;;15.10;4.78;;;7.30;99.90;;;;;;5105943;28;20055;-66
2021/12/19 09:14:56;;;;;;;19.73;3.83;;;7.20;99.90;;;;;;5106935;28;20050;-66
2021/12/19 09:17:22;;;;;;;20.30;4.30;;;7.40;99.90;;;;;;5102366;28;20059;-65
2021/12/19 09:19:48;;;;;;;16.40;4.18;;;7.30;99.90;;;;;;5107532;28;20059;-65
2021/12/19 09:22:14;;;;;;;17.60;4.18;;;7.30;99.90;;;;;;5104714;28;20044;-66
2021/12/19 09:24:40;;;;;;;12.88;4.05;;;7.30;99.90;;;;;;5106959;28;20545;-66
2021/12/19 09:27:07;;;;;;;14.32;4.32;;;7.40;99.90;;;;;;5103151;28;20123;-66
2021/12/19 09:29:33;;;;;;;17.08;4.03;;;7.30;99.90;;;;;;5104271;28;20055;-66
2021/12/19 09:31:59;;;;;;;13.82;4.38;;;7.40;99.90;;;;;;5104167;28;20282;-70
2021/12/19 09:34:29;;;;;;;15.90;4.35;;;7.40;99.90;;;;;;5062451;28;20047;-65
2021/12/19 09:36:55;;;;;;;19.70;3.60;;;7.40;99.90;;;;;;5104703;28;20050;-65
2021/12/19 09:39:23;;;;;;;11.57;3.38;;;7.40;99.90;;;;;;5111659;28;20046;-66
2021/12/19 09:41:54;;;;;;;17.70;3.50;;;7.40;99.90;;;;;;5110081;28;20047;-65
2021/12/19 09:44:20;;;;;;;11.43;3.60;;;7.30;99.90;;;;;;5114412;28;20093;-65
2021/12/19 09:46:47;;;;;;;16.80;3.65;;;7.40;99.90;;;;;;5116953;28;20048;-65
2021/12/19 09:49:16;;;;;;;17.42;4.18;;;7.40;99.90;;;;;;5120283;27;20039;-66
2021/12/19 09:51:43;;;;;;;16.98;3.88;;;7.40;99.90;;;;;;5121972;27;20055;-65
2021/12/19 09:54:10;;;;;;;14.82;3.17;;;7.50;99.90;;;;;;5136929;27;20039;-65
2021/12/19 09:56:36;;;;;;;14.45;3.38;;;7.40;99.90;;;;;;5123557;27;20081;-65
2021/12/19 09:59:07;;;;;;;17.20;3.95;;;7.40;99.90;;;;;;5123312;27;20070;-65
2021/12/19 10:01:33;;;;;;;14.32;3.20;;;7.40;99.90;;;;;;5125072;27;20089;-65
2021/12/19 10:03:59;;;;;;;10.85;3.53;;;7.50;99.90;;;;;;5120981;27;20040;-65
2021/12/19 10:06:27;;;;;;;13.55;3.40;;;7.50;99.90;;;;;;5140408;27;20039;-65
2021/12/19 10:09:18;;;;;;;13.38;3.30;;;7.50;99.90;;;;;;5141387;27;20540;-65
2021/12/19 10:11:57;;;;;;;14.07;3.10;;;7.60;99.90;;;;;;5142802;27;20058;-65
2021/12/19 10:14:29;;;;;;;11.87;3.00;;;7.60;99.90;;;;;;5105356;28;20040;-64
2021/12/19 10:17:06;;;;;;;11.98;3.28;;;7.50;99.90;;;;;;5127919;27;20350;-65
2021/12/19 10:19:42;;;;;;;12.60;3.30;;;7.50;99.90;;;;;;5115672;28;20052;-64
2021/12/19 10:22:23;;;;;;;13.48;3.05;;;7.60;99.90;;;;;;5114275;27;20043;-65
2021/12/19 10:24:49;;;;;;;10.82;2.38;;;7.80;99.90;;;;;;5127829;27;20047;-64
2021/12/19 10:27:36;;;;;;;15.70;3.30;;;7.70;99.90;;;;;;5111664;28;20047;-64
2021/12/19 10:30:22;;;;;;;10.82;3.47;;;7.70;99.90;;;;;;5109157;28;20157;-64
2021/12/19 10:32:54;;;;;;;15.18;3.40;;;7.80;99.90;;;;;;5066806;27;20147;-63
2021/12/19 10:35:31;;;;;;;17.88;3.28;;;7.80;99.90;;;;;;5096581;27;20036;-63
2021/12/19 10:37:58;;;;;;;16.67;4.00;;;7.80;99.90;;;;;;5098062;28;20063;-64
2021/12/19 10:40:25;;;;;;;10.43;3.17;;;7.80;99.90;;;;;;5089430;28;20054;-63
2021/12/19 10:42:56;;;;;;;11.90;3.10;;;7.70;99.90;;;;;;5094624;28;20047;-64
2021/12/19 10:45:29;;;;;;;9.82;2.85;;;7.70;99.90;;;;;;5099837;28;20040;-64
2021/12/19 10:48:21;;;;;;;10.98;2.40;;;7.70;99.90;;;;;;5089329;28;20146;-64
2021/12/19 10:51:12;;;;;;;7.15;2.08;;;7.70;99.90;;;;;;5100368;28;20040;-64
2021/12/19 10:53:41;;;;;;;14.85;2.65;;;7.90;99.90;;;;;;5094105;28;20085;-64
2021/12/19 10:56:13;;;;;;;6.53;2.37;;;8.00;99.90;;;;;;5109116;28;20436;-64
2021/12/19 10:58:51;;;;;;;9.13;2.88;;;8.10;99.90;;;;;;5084981;28;20060;-65
2021/12/19 11:01:18;;;;;;;7.50;2.90;;;8.30;99.90;;;;;;5096378;28;20048;-65
2021/12/19 11:03:45;;;;;;;11.60;2.60;;;8.40;99.90;;;;;;5092522;28;20506;-64
2021/12/19 11:06:23;;;;;;;12.77;2.50;;;8.30;99.90;;;;;;5103514;28;20047;-65
2021/12/19 11:08:51;;;;;;;12.07;2.50;;;8.20;99.90;;;;;;5097491;28;20043;-64
2021/12/19 11:11:39;;;;;;;10.85;2.67;;;8.20;99.90;;;;;;5112696;28;20055;-65
2021/12/19 11:14:06;;;;;;;14.45;3.10;;;8.00;99.90;;;;;;5095838;28;20059;-66
2021/12/19 11:16:32;;;;;;;11.10;2.67;;;8.00;99.90;;;;;;5107761;28;20039;-64
2021/12/19 11:18:58;;;;;;;8.80;2.15;;;8.00;99.90;;;;;;5097108;27;20062;-64
2021/12/19 11:21:24;;;;;;;11.18;2.05;;;8.10;99.90;;;;;;5099412;28;20043;-66
2021/12/19 11:23:50;;;;;;;16.60;3.45;;;8.10;99.90;;;;;;5091495;28;20143;-64
2021/12/19 11:26:20;;;;;;;10.35;2.40;;;8.10;99.90;;;;;;5102556;28;20036;-65
2021/12/19 11:28:47;;;;;;;15.68;2.50;;;8.10;99.90;;;;;;5064009;28;20050;-64
2021/12/19 11:31:13;;;;;;;13.48;2.60;;;8.00;99.90;;;;;;5075989;28;20082;-64
2021/12/19 11:34:08;;;;;;;10.77;2.42;;;8.00;99.90;;;;;;5079055;28;20486;-64
2021/12/19 11:36:38;;;;;;;9.45;2.38;;;8.10;99.90;;;;;;5086647;28;20044;-64
2021/12/19 11:39:07;;;;;;;14.77;2.50;;;8.10;99.90;;;;;;5078591;28;20150;-64
2021/12/19 11:41:34;;;;;;;13.48;2.47;;;8.10;99.90;;;;;;5097020;28;20048;-64
2021/12/19 11:44:04;;;;;;;9.73;2.22;;;8.10;99.90;;;;;;5079645;28;20076;-64
2021/12/19 11:46:52;;;;;;;9.93;2.00;;;8.10;99.90;;;;;;5093530;28;20051;-65
2021/12/19 11:49:25;;;;;;;12.68;2.35;;;8.10;99.90;;;;;;5075466;28;20112;-64
2021/12/19 11:52:24;;;;;;;13.35;2.13;;;8.10;99.90;;;;;;5097447;28;20051;-64
2021/12/19 11:55:25;;;;;;;20.05;4.75;;;8.20;99.90;;;;;;5069341;28;20124;-64
2021/12/19 11:58:12;;;;;;;17.48;2.90;;;8.20;99.90;;;;;;5006040;28;20156;-65
2021/12/19 12:00:47;;;;;;;15.13;3.00;;;8.10;99.90;;;;;;5028518;28;20061;-65
2021/12/19 12:03:12;;;;;;;11.50;2.22;;;8.10;99.90;;;;;;5040234;28;20064;-64
2021/12/19 12:05:52;;;;;;;14.80;3.10;;;8.10;99.90;;;;;;5051333;28;20565;-65
2021/12/19 12:08:20;;;;;;;8.85;2.15;;;8.00;99.90;;;;;;5013777;28;20056;-64
2021/12/19 12:10:51;;;;;;;12.48;2.60;;;8.10;99.90;;;;;;5026700;28;20037;-64
2021/12/19 12:13:31;;;;;;;17.25;2.65;;;8.10;99.90;;;;;;5029708;28;20057;-64
2021/12/19 12:16:26;;;;;;;12.25;2.42;;;8.00;99.90;;;;;;5030977;28;20049;-65
2021/12/19 12:18:55;;;;;;;15.38;3.05;;;8.00;99.90;;;;;;5003935;28;20067;-64
2021/12/19 12:21:24;;;;;;;12.48;2.65;;;8.00;99.90;;;;;;5022885;28;20192;-65
2021/12/19 12:24:12;;;;;;;15.27;3.00;;;8.00;99.90;;;;;;5033975;28;20056;-64
2021/12/19 12:26:46;;;;;;;19.17;3.75;;;8.00;99.90;;;;;;5020945;28;20057;-64
2021/12/19 12:29:12;;;;;;;19.98;3.25;;;8.00;99.90;;;;;;5039927;28;20095;-65
2021/12/19 12:31:42;;;;;;;16.15;2.70;;;8.00;99.90;;;;;;5050315;28;20049;-64
2021/12/19 12:34:10;;;;;;;17.17;3.00;;;8.10;99.90;;;;;;5044823;28;20355;-64
2021/12/19 12:36:36;;;;;;;14.60;2.63;;;8.00;99.90;;;;;;5074524;28;20049;-64
2021/12/19 12:39:07;;;;;;;16.20;3.17;;;8.10;99.90;;;;;;5068177;28;20062;-64
2021/12/19 12:44:26;;;;;;;18.73;2.60;;;8.00;99.90;;;;;;5090413;28;20385;-65
2021/12/19 12:46:52;;;;;;;16.40;2.58;;;8.10;99.90;;;;;;5074826;28;20056;-64
2021/12/19 12:49:25;;;;;;;20.92;2.70;;;8.10;99.90;;;;;;5065223;28;20052;-65
2021/12/19 12:51:56;;;;;;;16.63;3.45;;;8.10;99.90;;;;;;5075600;28;20040;-64
2021/12/19 12:54:33;;;;;;;18.85;2.90;;;8.10;99.90;;;;;;5054791;28;20084;-66
2021/12/19 12:57:00;;;;;;;14.02;3.22;;;8.10;99.90;;;;;;5075856;28;20079;-64
2021/12/19 12:59:33;;;;;;;14.80;2.83;;;8.20;99.90;;;;;;5054179;28;20083;-64
2021/12/19 13:04:33;;;;;;;20.67;4.65;;;8.20;99.90;;;;;;5088424;28;20055;-67
2021/12/19 13:07:13;;;;;;;19.25;3.47;;;8.20;99.90;;;;;;5105191;28;20066;-69
2021/12/19 13:09:40;;;;;;;20.35;4.43;;;8.20;99.90;;;;;;5061664;28;20052;-67
2021/12/19 13:12:21;;;;;;;17.35;3.60;;;8.20;99.90;;;;;;5072733;28;20069;-66
2021/12/19 13:14:54;;;;;;;23.92;3.22;;;8.10;99.90;;;;;;5068519;28;20535;-65
2021/12/19 13:17:29;;;;;;;20.10;4.10;;;8.00;99.90;;;;;;5089894;28;20036;-67
2021/12/19 13:20:03;;;;;;;19.40;3.40;;;8.00;99.90;;;;;;5093720;28;20051;-67
2021/12/19 13:22:42;;;;;;;17.35;3.38;;;8.10;99.90;;;;;;5109739;28;20050;-67
2021/12/19 13:25:12;;;;;;;13.95;3.33;;;8.00;99.90;;;;;;5074362;28;20092;-66
2021/12/19 13:27:40;;;;;;;14.70;2.97;;;8.20;99.90;;;;;;5079444;28;20067;-66
2021/12/19 13:30:24;;;;;;;19.05;3.78;;;8.40;99.90;;;;;;5082269;28;20047;-66
2021/12/19 13:32:51;;;;;;;20.23;3.70;;;8.50;99.90;;;;;;5071572;28;21741;-67
2021/12/19 13:35:23;;;;;;;17.92;2.80;;;8.70;99.90;;;;;;5095880;28;20058;-66
2021/12/19 13:37:53;;;;;;;14.82;2.55;;;8.70;99.90;;;;;;5100529;28;20143;-67
2021/12/19 13:40:20;;;;;;;11.38;3.60;;;8.50;99.90;;;;;;5089134;28;20055;-68
2021/12/19 13:42:55;;;;;;;22.35;3.95;;;8.30;99.90;;;;;;5113047;28;20040;-66
2021/12/19 13:45:30;;;;;;;15.18;2.75;;;8.30;99.90;;;;;;5062927;28;20204;-68
2021/12/19 13:47:59;;;;;;;16.95;3.47;;;8.20;99.90;;;;;;5097673;28;20043;-66
2021/12/19 13:50:25;;;;;;;18.88;3.97;;;8.20;99.90;;;;;;5102950;28;20055;-66
2021/12/19 13:52:51;;;;;;;14.70;2.35;;;8.10;99.90;;;;;;5099561;28;20048;-67
2021/12/19 13:55:17;;;;;;;15.02;3.90;;;8.20;99.90;;;;;;5092267;28;20077;-66
2021/12/19 13:57:45;;;;;;;21.75;3.15;;;8.10;99.90;;;;;;5106607;28;20051;-64
2021/12/19 14:00:35;;;;;;;16.23;2.70;;;8.20;99.90;;;;;;5110840;28;20043;-64
2021/12/19 14:03:01;;;;;;;18.65;3.05;;;8.20;99.90;;;;;;5090847;28;20057;-65
2021/12/19 14:05:44;;;;;;;16.77;2.80;;;8.30;99.90;;;;;;5090459;28;20047;-64
2021/12/19 14:08:19;;;;;;;11.70;2.50;;;8.20;99.90;;;;;;5081228;28;20081;-65
2021/12/19 14:10:45;;;;;;;14.65;3.58;;;8.10;99.90;;;;;;5079940;28;20040;-65
2021/12/19 14:13:30;;;;;;;13.88;2.00;;;8.10;99.90;;;;;;5061740;28;20053;-65